sensor_id;sensor_type;location;lat;lon;timestamp;pressure;altitude;pressure_sealevel;temperature;humidity
43125;BME280;49182;50.788;7.318;2022-09-13T00:00:30;100370.25;;;13.68;89.08
43125;BME280;49182;50.788;7.318;2022-09-13T00:02:59;100368.06;;;13.64;89.19
43125;BME280;49182;50.788;7.318;2022-09-13T00:05:25;100356.25;;;13.58;89.36
43125;BME280;49182;50.788;7.318;2022-09-13T00:07:52;100386.66;;;13.72;89.09
43125;BME280;49182;50.788;7.318;2022-09-13T00:10:19;100380.53;;;13.71;89.23
43125;BME280;49182;50.788;7.318;2022-09-13T00:12:47;100382.88;;;13.74;88.75
43125;BME280;49182;50.788;7.318;2022-09-13T00:15:14;100362.63;;;13.73;88.77
43125;BME280;49182;50.788;7.318;2022-09-13T00:17:41;100360.97;;;13.72;89.13
43125;BME280;49182;50.788;7.318;2022-09-13T00:20:09;100354.19;;;13.70;89.49
43125;BME280;49182;50.788;7.318;2022-09-13T00:22:36;100306.66;;;13.43;89.65
43125;BME280;49182;50.788;7.318;2022-09-13T00:25:03;100305.31;;;13.39;89.98
43125;BME280;49182;50.788;7.318;2022-09-13T00:27:31;100350.31;;;13.64;89.67
43125;BME280;49182;50.788;7.318;2022-09-13T00:29:57;100351.00;;;13.66;89.59
43125;BME280;49182;50.788;7.318;2022-09-13T00:32:24;100342.69;;;13.61;89.68
43125;BME280;49182;50.788;7.318;2022-09-13T00:34:50;100328.91;;;13.58;89.55
43125;BME280;49182;50.788;7.318;2022-09-13T00:37:18;100334.88;;;13.60;89.61
43125;BME280;49182;50.788;7.318;2022-09-13T00:39:45;100330.75;;;13.57;90.11
43125;BME280;49182;50.788;7.318;2022-09-13T00:42:15;100327.91;;;13.59;90.00
43125;BME280;49182;50.788;7.318;2022-09-13T00:44:52;100331.19;;;13.53;90.10
43125;BME280;49182;50.788;7.318;2022-09-13T00:47:22;100327.25;;;13.57;90.49
43125;BME280;49182;50.788;7.318;2022-09-13T00:49:51;100331.72;;;13.56;90.05
43125;BME280;49182;50.788;7.318;2022-09-13T00:52:24;100335.53;;;13.54;90.03
43125;BME280;49182;50.788;7.318;2022-09-13T00:54:57;100336.16;;;13.48;90.33
43125;BME280;49182;50.788;7.318;2022-09-13T00:57:28;100340.84;;;13.54;89.99
43125;BME280;49182;50.788;7.318;2022-09-13T01:00:00;100335.53;;;13.54;90.39
43125;BME280;49182;50.788;7.318;2022-09-13T01:02:27;100337.19;;;13.55;90.27
43125;BME280;49182;50.788;7.318;2022-09-13T01:04:55;100336.34;;;13.54;90.44
43125;BME280;49182;50.788;7.318;2022-09-13T01:07:23;100336.34;;;13.54;89.83
43125;BME280;49182;50.788;7.318;2022-09-13T01:09:50;100339.84;;;13.55;89.72
43125;BME280;49182;50.788;7.318;2022-09-13T01:12:26;100346.47;;;13.51;90.15
43125;BME280;49182;50.788;7.318;2022-09-13T01:14:56;100340.34;;;13.50;90.24
43125;BME280;49182;50.788;7.318;2022-09-13T01:17:25;100341.47;;;13.48;90.75
43125;BME280;49182;50.788;7.318;2022-09-13T01:19:52;100337.97;;;13.39;90.45
43125;BME280;49182;50.788;7.318;2022-09-13T01:22:50;100347.09;;;13.45;89.95
43125;BME280;49182;50.788;7.318;2022-09-13T01:25:56;100334.47;;;13.39;90.02
43125;BME280;49182;50.788;7.318;2022-09-13T01:28:41;100344.28;;;13.46;90.36
43125;BME280;49182;50.788;7.318;2022-09-13T01:31:19;100343.78;;;13.43;90.47
43125;BME280;49182;50.788;7.318;2022-09-13T01:34:01;100346.44;;;13.43;90.41
43125;BME280;49182;50.788;7.318;2022-09-13T01:36:45;100348.94;;;13.44;90.80
43125;BME280;49182;50.788;7.318;2022-09-13T01:39:24;100341.81;;;13.45;90.70
43125;BME280;49182;50.788;7.318;2022-09-13T01:42:06;100342.44;;;13.47;90.57
43125;BME280;49182;50.788;7.318;2022-09-13T01:44:46;100340.13;;;13.44;90.49
43125;BME280;49182;50.788;7.318;2022-09-13T01:47:24;100341.59;;;13.38;90.64
43125;BME280;49182;50.788;7.318;2022-09-13T01:50:00;100348.94;;;13.44;90.35
43125;BME280;49182;50.788;7.318;2022-09-13T01:52:33;100348.75;;;13.46;90.54
43125;BME280;49182;50.788;7.318;2022-09-13T01:55:05;100349.75;;;13.45;90.49
43125;BME280;49182;50.788;7.318;2022-09-13T01:57:37;100337.63;;;13.42;90.72
43125;BME280;49182;50.788;7.318;2022-09-13T02:00:09;100340.63;;;13.47;90.50
43125;BME280;49182;50.788;7.318;2022-09-13T02:02:44;100348.75;;;13.46;90.64
43125;BME280;49182;50.788;7.318;2022-09-13T02:05:15;100351.72;;;13.43;91.24
43125;BME280;49182;50.788;7.318;2022-09-13T02:07:44;100354.88;;;13.46;91.25
43125;BME280;49182;50.788;7.318;2022-09-13T02:10:17;100353.91;;;13.47;91.58
43125;BME280;49182;50.788;7.318;2022-09-13T02:12:49;100341.31;;;13.49;91.69
43125;BME280;49182;50.788;7.318;2022-09-13T02:15:21;100334.34;;;13.48;91.99
43125;BME280;49182;50.788;7.318;2022-09-13T02:17:54;100308.94;;;13.38;91.84
43125;BME280;49182;50.788;7.318;2022-09-13T02:20:28;100328.25;;;13.56;91.98
43125;BME280;49182;50.788;7.318;2022-09-13T02:22:59;100309.97;;;13.45;92.09
43125;BME280;49182;50.788;7.318;2022-09-13T02:25:29;100334.06;;;13.59;92.00
43125;BME280;49182;50.788;7.318;2022-09-13T02:28:00;100330.41;;;13.60;92.08
43125;BME280;49182;50.788;7.318;2022-09-13T02:30:28;100328.75;;;13.59;92.33
43125;BME280;49182;50.788;7.318;2022-09-13T02:33:02;100330.91;;;13.56;92.18
43125;BME280;49182;50.788;7.318;2022-09-13T02:35:33;100329.56;;;13.60;91.91
43125;BME280;49182;50.788;7.318;2022-09-13T02:38:04;100326.63;;;13.63;91.71
43125;BME280;49182;50.788;7.318;2022-09-13T02:40:36;100322.97;;;13.64;91.88
43125;BME280;49182;50.788;7.318;2022-09-13T02:43:07;100277.78;;;13.40;91.67
43125;BME280;49182;50.788;7.318;2022-09-13T02:45:39;100321.63;;;13.60;92.08
43125;BME280;49182;50.788;7.318;2022-09-13T02:48:13;100316.16;;;13.61;91.86
43125;BME280;49182;50.788;7.318;2022-09-13T02:50:50;100315.47;;;13.59;91.79
43125;BME280;49182;50.788;7.318;2022-09-13T02:53:24;100292.59;;;13.50;91.69
43125;BME280;49182;50.788;7.318;2022-09-13T02:55:55;100296.56;;;13.54;91.55
43125;BME280;49182;50.788;7.318;2022-09-13T02:58:29;100307.41;;;13.69;91.67
43125;BME280;49182;50.788;7.318;2022-09-13T03:00:57;100319.69;;;13.78;91.97
43125;BME280;49182;50.788;7.318;2022-09-13T03:03:25;100312.72;;;13.85;91.62
43125;BME280;49182;50.788;7.318;2022-09-13T03:05:52;100314.41;;;13.86;91.60
43125;BME280;49182;50.788;7.318;2022-09-13T03:08:19;100315.88;;;13.89;91.30
43125;BME280;49182;50.788;7.318;2022-09-13T03:10:54;100327.53;;;13.88;91.54
43125;BME280;49182;50.788;7.318;2022-09-13T03:16:23;100323.53;;;13.92;91.38
43125;BME280;49182;50.788;7.318;2022-09-13T03:19:09;100326.69;;;13.95;91.43
43125;BME280;49182;50.788;7.318;2022-09-13T03:21:54;100298.47;;;13.86;90.93
43125;BME280;49182;50.788;7.318;2022-09-13T03:24:29;100318.41;;;13.98;90.83
43125;BME280;49182;50.788;7.318;2022-09-13T03:27:08;100281.72;;;13.86;90.80
43125;BME280;49182;50.788;7.318;2022-09-13T03:29:46;100307.28;;;14.03;90.88
43125;BME280;49182;50.788;7.318;2022-09-13T03:32:22;100312.28;;;14.06;90.84
43125;BME280;49182;50.788;7.318;2022-09-13T03:34:55;100313.28;;;14.13;90.17
43125;BME280;49182;50.788;7.318;2022-09-13T03:37:30;100299.00;;;14.06;90.34
43125;BME280;49182;50.788;7.318;2022-09-13T03:40:02;100301.00;;;14.12;90.41
43125;BME280;49182;50.788;7.318;2022-09-13T03:42:34;100278.44;;;14.00;90.43
43125;BME280;49182;50.788;7.318;2022-09-13T03:45:06;100287.06;;;14.18;90.41
43125;BME280;49182;50.788;7.318;2022-09-13T03:47:35;100236.44;;;13.87;90.34
43125;BME280;49182;50.788;7.318;2022-09-13T03:50:06;100301.19;;;14.18;90.33
43125;BME280;49182;50.788;7.318;2022-09-13T03:52:34;100299.53;;;14.26;90.11
43125;BME280;49182;50.788;7.318;2022-09-13T03:55:01;100287.72;;;14.28;90.03
43125;BME280;49182;50.788;7.318;2022-09-13T03:57:27;100294.38;;;14.24;90.37
43125;BME280;49182;50.788;7.318;2022-09-13T03:59:55;100287.06;;;14.26;90.21
43125;BME280;49182;50.788;7.318;2022-09-13T04:02:24;100260.84;;;14.15;90.22
43125;BME280;49182;50.788;7.318;2022-09-13T04:04:51;100285.06;;;14.28;90.06
43125;BME280;49182;50.788;7.318;2022-09-13T04:07:22;100279.59;;;14.30;90.34
43125;BME280;49182;50.788;7.318;2022-09-13T04:09:49;100288.56;;;14.29;90.23
43125;BME280;49182;50.788;7.318;2022-09-13T04:12:16;100285.75;;;14.30;90.29
43125;BME280;49182;50.788;7.318;2022-09-13T04:14:43;100276.94;;;14.30;89.93
43125;BME280;49182;50.788;7.318;2022-09-13T04:17:11;100276.59;;;14.33;89.97
43125;BME280;49182;50.788;7.318;2022-09-13T04:19:38;100290.25;;;14.38;89.86
43125;BME280;49182;50.788;7.318;2022-09-13T04:22:05;100289.56;;;14.36;90.35
43125;BME280;49182;50.788;7.318;2022-09-13T04:24:33;100297.06;;;14.40;89.94
43125;BME280;49182;50.788;7.318;2022-09-13T04:27:00;100291.69;;;14.32;89.67
43125;BME280;49182;50.788;7.318;2022-09-13T04:29:27;100293.22;;;14.35;90.35
43125;BME280;49182;50.788;7.318;2022-09-13T04:31:53;100300.34;;;14.34;90.31
43125;BME280;49182;50.788;7.318;2022-09-13T04:34:21;100301.53;;;14.40;90.03
43125;BME280;49182;50.788;7.318;2022-09-13T04:36:48;100307.53;;;14.42;90.12
43125;BME280;49182;50.788;7.318;2022-09-13T04:39:16;100306.34;;;14.44;89.42
43125;BME280;49182;50.788;7.318;2022-09-13T04:41:44;100165.75;;;13.54;89.38
43125;BME280;49182;50.788;7.318;2022-09-13T04:44:13;100319.81;;;14.43;89.44
43125;BME280;49182;50.788;7.318;2022-09-13T04:46:40;100313.00;;;14.40;89.64
43125;BME280;49182;50.788;7.318;2022-09-13T04:49:09;100316.16;;;14.44;89.71
43125;BME280;49182;50.788;7.318;2022-09-13T04:51:36;100315.97;;;14.45;89.68
43125;BME280;49182;50.788;7.318;2022-09-13T04:54:03;100326.44;;;14.47;89.73
43125;BME280;49182;50.788;7.318;2022-09-13T04:56:29;100326.28;;;14.48;89.46
43125;BME280;49182;50.788;7.318;2022-09-13T04:58:58;100337.56;;;14.50;89.42
43125;BME280;49182;50.788;7.318;2022-09-13T05:01:24;100289.38;;;14.29;89.25
43125;BME280;49182;50.788;7.318;2022-09-13T05:03:53;100325.63;;;14.54;89.18
43125;BME280;49182;50.788;7.318;2022-09-13T05:06:20;100322.78;;;14.56;88.81
43125;BME280;49182;50.788;7.318;2022-09-13T05:08:49;100252.38;;;14.11;88.47
43125;BME280;49182;50.788;7.318;2022-09-13T05:11:16;100327.91;;;14.57;88.65
43125;BME280;49182;50.788;7.318;2022-09-13T05:13:43;100323.78;;;14.55;88.38
43125;BME280;49182;50.788;7.318;2022-09-13T05:16:15;100331.09;;;14.61;88.28
43125;BME280;49182;50.788;7.318;2022-09-13T05:18:41;100322.28;;;14.61;88.09
43125;BME280;49182;50.788;7.318;2022-09-13T05:21:10;100327.09;;;14.65;87.98
43125;BME280;49182;50.788;7.318;2022-09-13T05:23:37;100296.91;;;14.50;88.06
43125;BME280;49182;50.788;7.318;2022-09-13T05:26:05;100329.06;;;14.71;87.86
43125;BME280;49182;50.788;7.318;2022-09-13T05:28:33;100333.06;;;14.75;87.89
43125;BME280;49182;50.788;7.318;2022-09-13T05:31:05;100306.66;;;14.66;87.81
43125;BME280;49182;50.788;7.318;2022-09-13T05:33:35;100328.09;;;14.80;87.69
43125;BME280;49182;50.788;7.318;2022-09-13T05:36:03;100261.53;;;14.41;87.76
43125;BME280;49182;50.788;7.318;2022-09-13T05:38:31;100261.03;;;14.46;87.89
43125;BME280;49182;50.788;7.318;2022-09-13T05:40:59;100323.59;;;14.81;88.05
43125;BME280;49182;50.788;7.318;2022-09-13T05:43:28;100328.41;;;14.85;88.28
43125;BME280;49182;50.788;7.318;2022-09-13T05:46:05;100301.03;;;14.69;88.92
43125;BME280;49182;50.788;7.318;2022-09-13T05:48:34;100324.56;;;14.88;88.56
43125;BME280;49182;50.788;7.318;2022-09-13T05:51:05;100301.50;;;14.72;88.42
43125;BME280;49182;50.788;7.318;2022-09-13T05:53:32;100332.38;;;14.89;88.77
43125;BME280;49182;50.788;7.318;2022-09-13T05:55:59;100325.91;;;14.92;88.74
43125;BME280;49182;50.788;7.318;2022-09-13T05:58:26;100323.09;;;14.93;88.88
43125;BME280;49182;50.788;7.318;2022-09-13T06:00:53;100319.41;;;14.94;88.79
43125;BME280;49182;50.788;7.318;2022-09-13T06:03:20;100329.72;;;14.97;88.68
43125;BME280;49182;50.788;7.318;2022-09-13T06:05:48;100315.22;;;15.00;88.83
43125;BME280;49182;50.788;7.318;2022-09-13T06:08:15;100309.09;;;15.00;88.86
43125;BME280;49182;50.788;7.318;2022-09-13T06:10:41;100309.59;;;15.03;88.84
43125;BME280;49182;50.788;7.318;2022-09-13T06:13:08;100308.06;;;15.09;88.68
43125;BME280;49182;50.788;7.318;2022-09-13T06:15:34;100311.41;;;15.11;88.18
43125;BME280;49182;50.788;7.318;2022-09-13T06:18:06;100308.75;;;15.03;88.56
43125;BME280;49182;50.788;7.318;2022-09-13T06:20:33;100319.53;;;15.17;87.87
43125;BME280;49182;50.788;7.318;2022-09-13T06:23:01;100312.19;;;15.19;88.01
43125;BME280;49182;50.788;7.318;2022-09-13T06:25:27;100318.00;;;15.23;88.09
43125;BME280;49182;50.788;7.318;2022-09-13T06:27:54;100320.16;;;15.27;88.21
43125;BME280;49182;50.788;7.318;2022-09-13T06:30:20;100313.66;;;15.30;88.44
43125;BME280;49182;50.788;7.318;2022-09-13T06:32:47;100312.16;;;15.35;88.34
43125;BME280;49182;50.788;7.318;2022-09-13T06:35:14;100309.97;;;15.39;88.42
43125;BME280;49182;50.788;7.318;2022-09-13T06:37:40;100294.66;;;15.41;86.91
43125;BME280;49182;50.788;7.318;2022-09-13T06:40:09;100305.25;;;15.49;87.21
43125;BME280;49182;50.788;7.318;2022-09-13T06:42:36;100310.09;;;15.54;87.51
43125;BME280;49182;50.788;7.318;2022-09-13T06:45:03;100304.91;;;15.60;87.43
43125;BME280;49182;50.788;7.318;2022-09-13T06:47:29;100301.03;;;15.71;86.68
43125;BME280;49182;50.788;7.318;2022-09-13T06:49:56;100311.81;;;15.77;86.58
43125;BME280;49182;50.788;7.318;2022-09-13T06:52:23;100307.44;;;15.85;86.65
43125;BME280;49182;50.788;7.318;2022-09-13T06:54:50;100312.53;;;15.94;86.21
43125;BME280;49182;50.788;7.318;2022-09-13T06:57:18;100319.47;;;16.03;85.87
43125;BME280;49182;50.788;7.318;2022-09-13T06:59:44;100298.66;;;15.99;85.87
43125;BME280;49182;50.788;7.318;2022-09-13T07:02:11;100309.06;;;16.16;86.18
43125;BME280;49182;50.788;7.318;2022-09-13T07:04:37;100309.19;;;16.23;86.01
43125;BME280;49182;50.788;7.318;2022-09-13T07:07:04;100298.81;;;16.28;86.14
43125;BME280;49182;50.788;7.318;2022-09-13T07:09:31;100298.09;;;16.34;85.76
43125;BME280;49182;50.788;7.318;2022-09-13T07:11:57;100284.06;;;16.40;85.64
43125;BME280;49182;50.788;7.318;2022-09-13T07:14:27;100289.66;;;16.45;85.13
43125;BME280;49182;50.788;7.318;2022-09-13T07:16:54;100291.50;;;16.45;84.62
43125;BME280;49182;50.788;7.318;2022-09-13T07:19:22;100288.66;;;16.46;84.66
43125;BME280;49182;50.788;7.318;2022-09-13T07:21:49;100289.94;;;16.50;84.18
43125;BME280;49182;50.788;7.318;2022-09-13T07:24:17;100289.63;;;16.68;84.10
43125;BME280;49182;50.788;7.318;2022-09-13T07:26:44;100275.13;;;16.71;83.78
43125;BME280;49182;50.788;7.318;2022-09-13T07:29:13;100297.66;;;16.97;83.81
43125;BME280;49182;50.788;7.318;2022-09-13T07:31:43;100295.41;;;17.09;83.12
43125;BME280;49182;50.788;7.318;2022-09-13T07:34:12;100302.53;;;17.23;83.18
43125;BME280;49182;50.788;7.318;2022-09-13T07:36:39;100299.69;;;17.39;82.33
43125;BME280;49182;50.788;7.318;2022-09-13T07:39:07;100299.03;;;17.52;81.91
43125;BME280;49182;50.788;7.318;2022-09-13T07:41:40;100302.91;;;17.64;81.79
43125;BME280;49182;50.788;7.318;2022-09-13T07:44:08;100313.53;;;17.79;80.75
43125;BME280;49182;50.788;7.318;2022-09-13T07:46:36;100313.69;;;17.92;80.31
43125;BME280;49182;50.788;7.318;2022-09-13T07:49:04;100309.31;;;18.06;80.64
43125;BME280;49182;50.788;7.318;2022-09-13T07:51:32;100311.13;;;18.20;80.25
43125;BME280;49182;50.788;7.318;2022-09-13T07:54:01;100313.50;;;18.36;79.40
43125;BME280;49182;50.788;7.318;2022-09-13T07:56:29;100311.97;;;18.48;77.97
43125;BME280;49182;50.788;7.318;2022-09-13T07:58:58;100306.72;;;18.55;78.22
43125;BME280;49182;50.788;7.318;2022-09-13T08:01:26;100308.84;;;18.66;77.73
43125;BME280;49182;50.788;7.318;2022-09-13T08:03:55;100312.66;;;18.78;77.32
43125;BME280;49182;50.788;7.318;2022-09-13T08:06:25;100311.91;;;18.91;76.99
43125;BME280;49182;50.788;7.318;2022-09-13T08:08:52;100305.63;;;19.05;76.15
43125;BME280;49182;50.788;7.318;2022-09-13T08:11:21;100310.25;;;19.18;76.00
43125;BME280;49182;50.788;7.318;2022-09-13T08:13:49;100309.28;;;19.32;74.85
43125;BME280;49182;50.788;7.318;2022-09-13T08:16:18;100303.16;;;19.45;74.33
43125;BME280;49182;50.788;7.318;2022-09-13T08:18:46;100308.19;;;19.54;74.37
43125;BME280;49182;50.788;7.318;2022-09-13T08:21:13;100306.41;;;19.74;73.71
43125;BME280;49182;50.788;7.318;2022-09-13T08:23:42;100296.75;;;19.87;72.84
43125;BME280;49182;50.788;7.318;2022-09-13T08:26:09;100294.09;;;20.00;71.80
43125;BME280;49182;50.788;7.318;2022-09-13T08:28:37;100297.84;;;20.12;71.19
43125;BME280;49182;50.788;7.318;2022-09-13T08:31:05;100301.56;;;20.24;70.28
43125;BME280;49182;50.788;7.318;2022-09-13T08:33:32;100292.28;;;20.27;70.63
43125;BME280;49182;50.788;7.318;2022-09-13T08:35:59;100297.69;;;20.46;68.71
43125;BME280;49182;50.788;7.318;2022-09-13T08:38:26;100290.47;;;20.60;68.19
43125;BME280;49182;50.788;7.318;2022-09-13T08:40:56;100285.69;;;20.69;66.42
43125;BME280;49182;50.788;7.318;2022-09-13T08:43:33;100280.97;;;20.77;66.17
43125;BME280;49182;50.788;7.318;2022-09-13T08:46:10;100290.41;;;20.99;66.50
43125;BME280;49182;50.788;7.318;2022-09-13T08:48:43;100296.78;;;21.12;66.21
43125;BME280;49182;50.788;7.318;2022-09-13T08:51:24;100298.63;;;21.24;65.15
43125;BME280;49182;50.788;7.318;2022-09-13T08:53:54;100296.56;;;21.33;65.13
43125;BME280;49182;50.788;7.318;2022-09-13T08:56:28;100289.88;;;21.42;64.54
43125;BME280;49182;50.788;7.318;2022-09-13T08:59:13;100292.97;;;21.52;64.12
43125;BME280;49182;50.788;7.318;2022-09-13T09:01:49;100295.97;;;21.69;63.55
43125;BME280;49182;50.788;7.318;2022-09-13T09:04:30;100295.09;;;21.82;63.56
43125;BME280;49182;50.788;7.318;2022-09-13T09:07:02;100299.56;;;21.94;62.39
43125;BME280;49182;50.788;7.318;2022-09-13T09:09:32;100302.22;;;22.07;61.89
43125;BME280;49182;50.788;7.318;2022-09-13T09:12:10;100289.75;;;22.13;61.11
43125;BME280;49182;50.788;7.318;2022-09-13T09:14:42;100305.94;;;22.38;61.65
43125;BME280;49182;50.788;7.318;2022-09-13T09:17:14;100301.50;;;22.50;58.67
43125;BME280;49182;50.788;7.318;2022-09-13T09:19:45;100305.94;;;22.63;57.80
43125;BME280;49182;50.788;7.318;2022-09-13T09:22:16;100302.75;;;22.72;57.51
43125;BME280;49182;50.788;7.318;2022-09-13T09:24:45;100307.19;;;22.85;57.51
43125;BME280;49182;50.788;7.318;2022-09-13T09:27:16;100294.28;;;22.93;57.76
43125;BME280;49182;50.788;7.318;2022-09-13T09:29:43;100294.16;;;23.07;58.00
43125;BME280;49182;50.788;7.318;2022-09-13T09:32:21;100309.03;;;23.27;56.48
43125;BME280;49182;50.788;7.318;2022-09-13T09:35:10;100316.63;;;23.37;57.02
43125;BME280;49182;50.788;7.318;2022-09-13T09:37:42;100310.50;;;23.48;55.97
43125;BME280;49182;50.788;7.318;2022-09-13T09:40:12;100267.13;;;23.31;56.45
43125;BME280;49182;50.788;7.318;2022-09-13T09:42:42;100308.59;;;23.67;55.30
43125;BME280;49182;50.788;7.318;2022-09-13T09:45:22;100303.47;;;23.77;54.50
43125;BME280;49182;50.788;7.318;2022-09-13T09:47:50;100294.91;;;23.68;54.33
43125;BME280;49182;50.788;7.318;2022-09-13T09:50:20;100305.78;;;23.92;52.99
43125;BME280;49182;50.788;7.318;2022-09-13T09:52:51;100309.66;;;23.96;52.82
43125;BME280;49182;50.788;7.318;2022-09-13T09:55:26;100314.22;;;23.95;52.84
43125;BME280;49182;50.788;7.318;2022-09-13T09:57:59;100307.34;;;23.99;53.09
43125;BME280;49182;50.788;7.318;2022-09-13T10:00:28;100309.25;;;24.10;52.41
43125;BME280;49182;50.788;7.318;2022-09-13T10:02:57;100309.09;;;24.24;52.05
43125;BME280;49182;50.788;7.318;2022-09-13T10:05:25;100300.50;;;24.27;52.21
43125;BME280;49182;50.788;7.318;2022-09-13T10:07:57;100279.03;;;24.20;50.68
43125;BME280;49182;50.788;7.318;2022-09-13T10:10:28;100275.66;;;24.36;50.99
43125;BME280;49182;50.788;7.318;2022-09-13T10:12:57;100299.03;;;24.54;50.74
43125;BME280;49182;50.788;7.318;2022-09-13T10:15:26;100303.28;;;24.62;50.72
43125;BME280;49182;50.788;7.318;2022-09-13T10:18:13;100297.06;;;24.73;49.91
43125;BME280;49182;50.788;7.318;2022-09-13T10:21:03;100301.03;;;24.82;49.48
43125;BME280;49182;50.788;7.318;2022-09-13T10:23:30;100298.09;;;24.83;47.79
43125;BME280;49182;50.788;7.318;2022-09-13T10:26:03;100290.38;;;24.87;47.90
43125;BME280;49182;50.788;7.318;2022-09-13T10:28:35;100289.56;;;24.98;48.04
43125;BME280;49182;50.788;7.318;2022-09-13T10:31:04;100291.56;;;25.03;47.62
43125;BME280;49182;50.788;7.318;2022-09-13T10:33:34;100292.16;;;25.05;47.57
43125;BME280;49182;50.788;7.318;2022-09-13T10:36:04;100259.84;;;24.98;47.86
43125;BME280;49182;50.788;7.318;2022-09-13T10:38:33;100275.69;;;25.06;46.97
43125;BME280;49182;50.788;7.318;2022-09-13T10:41:03;100262.53;;;25.10;47.65
43125;BME280;49182;50.788;7.318;2022-09-13T10:43:33;100256.78;;;25.18;47.57
43125;BME280;49182;50.788;7.318;2022-09-13T10:46:02;100274.72;;;25.35;47.01
43125;BME280;49182;50.788;7.318;2022-09-13T10:48:30;100263.50;;;25.44;46.75
43125;BME280;49182;50.788;7.318;2022-09-13T10:51:20;100266.72;;;25.29;44.71
43125;BME280;49182;50.788;7.318;2022-09-13T10:53:47;100264.97;;;25.23;45.61
43125;BME280;49182;50.788;7.318;2022-09-13T10:56:20;100255.66;;;25.42;46.36
43125;BME280;49182;50.788;7.318;2022-09-13T10:58:48;100252.34;;;25.40;45.99
43125;BME280;49182;50.788;7.318;2022-09-13T11:01:30;100248.00;;;25.39;44.95
43125;BME280;49182;50.788;7.318;2022-09-13T11:07:16;100220.91;;;25.51;46.09
43125;BME280;49182;50.788;7.318;2022-09-13T11:09:53;100252.22;;;25.75;44.97
43125;BME280;49182;50.788;7.318;2022-09-13T11:12:29;100250.34;;;25.75;43.36
43125;BME280;49182;50.788;7.318;2022-09-13T11:15:09;100248.28;;;25.66;43.26
43125;BME280;49182;50.788;7.318;2022-09-13T11:17:43;100247.50;;;25.82;44.02
43125;BME280;49182;50.788;7.318;2022-09-13T11:20:26;100242.38;;;25.97;43.39
43125;BME280;49182;50.788;7.318;2022-09-13T11:23:27;100238.25;;;26.11;43.12
43125;BME280;49182;50.788;7.318;2022-09-13T11:26:11;100234.28;;;26.31;43.78
43125;BME280;49182;50.788;7.318;2022-09-13T11:28:54;100236.06;;;26.42;43.10
43125;BME280;49182;50.788;7.318;2022-09-13T11:31:37;100233.03;;;26.55;43.23
43125;BME280;49182;50.788;7.318;2022-09-13T11:34:19;100224.91;;;26.72;43.11
43125;BME280;49182;50.788;7.318;2022-09-13T11:36:59;100233.59;;;26.90;43.64
43125;BME280;49182;50.788;7.318;2022-09-13T11:39:35;100229.06;;;26.96;42.24
43125;BME280;49182;50.788;7.318;2022-09-13T11:42:20;100222.63;;;27.24;41.39
43125;BME280;49182;50.788;7.318;2022-09-13T11:45:17;100198.66;;;27.37;40.75
43125;BME280;49182;50.788;7.318;2022-09-13T11:48:14;100215.47;;;27.61;40.93
43125;BME280;49182;50.788;7.318;2022-09-13T11:50:56;100211.06;;;27.82;40.82
43125;BME280;49182;50.788;7.318;2022-09-13T11:53:37;100206.13;;;28.06;41.70
43125;BME280;49182;50.788;7.318;2022-09-13T11:56:09;100204.06;;;28.18;42.00
43125;BME280;49182;50.788;7.318;2022-09-13T11:58:44;100211.81;;;28.36;41.19
43125;BME280;49182;50.788;7.318;2022-09-13T12:01:17;100204.78;;;28.45;40.13
43125;BME280;49182;50.788;7.318;2022-09-13T12:03:51;100197.84;;;28.60;39.61
43125;BME280;49182;50.788;7.318;2022-09-13T12:06:23;100219.06;;;28.63;37.55
43125;BME280;49182;50.788;7.318;2022-09-13T12:08:55;100211.91;;;28.88;38.32
43125;BME280;49182;50.788;7.318;2022-09-13T12:11:26;100212.69;;;28.89;37.54
43125;BME280;49182;50.788;7.318;2022-09-13T12:13:57;100215.50;;;29.04;37.41
43125;BME280;49182;50.788;7.318;2022-09-13T12:16:27;100209.59;;;29.22;36.21
43125;BME280;49182;50.788;7.318;2022-09-13T12:19:06;100207.41;;;29.24;37.16
43125;BME280;49182;50.788;7.318;2022-09-13T12:21:39;100208.00;;;29.31;37.43
43125;BME280;49182;50.788;7.318;2022-09-13T12:24:12;100204.16;;;29.32;37.10
43125;BME280;49182;50.788;7.318;2022-09-13T12:26:47;100205.28;;;29.31;37.29
43125;BME280;49182;50.788;7.318;2022-09-13T12:29:19;100197.97;;;29.37;37.45
43125;BME280;49182;50.788;7.318;2022-09-13T12:31:49;100194.59;;;29.20;37.09
43125;BME280;49182;50.788;7.318;2022-09-13T12:34:21;100185.13;;;29.27;35.98
43125;BME280;49182;50.788;7.318;2022-09-13T12:37:07;100181.88;;;29.25;36.60
43125;BME280;49182;50.788;7.318;2022-09-13T12:39:54;100174.78;;;29.24;36.13
43125;BME280;49182;50.788;7.318;2022-09-13T12:42:41;100169.28;;;29.04;37.00
43125;BME280;49182;50.788;7.318;2022-09-13T12:45:29;100168.13;;;28.95;36.24
43125;BME280;49182;50.788;7.318;2022-09-13T12:48:20;100138.47;;;28.83;36.86
43125;BME280;49182;50.788;7.318;2022-09-13T12:50:59;100176.38;;;29.15;37.35
43125;BME280;49182;50.788;7.318;2022-09-13T12:53:43;100174.22;;;29.17;37.61
43125;BME280;49182;50.788;7.318;2022-09-13T12:56:33;100166.31;;;29.21;37.57
43125;BME280;49182;50.788;7.318;2022-09-13T12:59:25;100160.84;;;29.06;37.43
43125;BME280;49182;50.788;7.318;2022-09-13T13:01:55;100138.22;;;28.95;37.65
43125;BME280;49182;50.788;7.318;2022-09-13T13:04:25;100144.25;;;29.02;37.12
43125;BME280;49182;50.788;7.318;2022-09-13T13:06:54;100168.22;;;29.20;37.61
43125;BME280;49182;50.788;7.318;2022-09-13T13:09:27;100152.47;;;29.27;37.13
43125;BME280;49182;50.788;7.318;2022-09-13T13:11:56;100162.88;;;29.51;37.54
43125;BME280;49182;50.788;7.318;2022-09-13T13:14:27;100160.72;;;29.63;36.92
43125;BME280;49182;50.788;7.318;2022-09-13T13:16:54;100151.47;;;29.69;37.29
43125;BME280;49182;50.788;7.318;2022-09-13T13:19:41;100144.16;;;29.80;36.35